Time;durP1;ratioP1;P1;durP2;ratioP2;P2;SDS_P1;SDS_P2;PMS_P1;PMS_P2;Temp;Humidity;BMP_temperature;BMP_pressure;BME280_temperature;BME280_humidity;BME280_pressure;Samples;Min_cycle;Max_cycle;Signal;HPM_P1;HPM_P2
2022/02/22 00:00:05;;;;;;;2.53;0.70;;;;;;;6.44;79.78;96017.09;5036086;28;20206;-68
2022/02/22 00:02:31;;;;;;;0.67;0.40;;;;;;;6.19;78.95;96025.78;5035654;28;21277;-69
2022/02/22 00:04:58;;;;;;;7.40;0.50;;;;;;;6.36;77.92;96014.41;5039660;28;20225;-68
2022/02/22 00:07:26;;;;;;;0.33;0.33;;;;;;;6.50;78.38;96011.22;5039645;28;20209;-68
2022/02/22 00:09:52;;;;;;;0.30;0.30;;;;;;;6.36;78.42;96016.22;5039625;28;20216;-68
2022/02/22 00:12:19;;;;;;;0.40;0.40;;;;;;;6.27;79.24;96031.06;5039349;28;20221;-68
2022/02/22 00:14:45;;;;;;;7.30;0.87;;;;;;;6.17;79.74;96025.16;5039574;28;20205;-68
2022/02/22 00:17:11;;;;;;;4.33;0.57;;;;;;;6.25;79.38;96019.94;5039624;28;20201;-69
2022/02/22 00:19:38;;;;;;;0.40;0.40;;;;;;;6.17;79.18;96033.00;5040200;28;20197;-68
2022/02/22 00:22:05;;;;;;;0.30;0.30;;;;;;;6.33;79.06;96027.81;5039540;28;21082;-69
2022/02/22 00:24:33;;;;;;;0.30;0.30;;;;;;;6.49;78.83;96012.22;5037556;28;20824;-68
2022/02/22 00:27:00;;;;;;;4.83;0.70;;;;;;;6.40;79.21;96014.94;5040329;28;20197;-69
2022/02/22 00:29:26;;;;;;;5.43;1.13;;;;;;;6.44;79.77;96014.47;5039683;28;20734;-69
2022/02/22 00:31:53;;;;;;;2.20;0.70;;;;;;;6.31;81.00;96016.72;5038963;28;20225;-69
2022/02/22 00:34:19;;;;;;;2.10;0.53;;;;;;;6.20;82.67;96035.28;5038839;28;20201;-69
2022/02/22 00:36:46;;;;;;;0.93;0.83;;;;;;;6.17;83.78;96032.16;5039711;28;20197;-69
2022/02/22 00:39:12;;;;;;;1.20;0.30;;;;;;;5.99;84.25;96039.25;5038918;28;20209;-69
2022/02/22 00:41:40;;;;;;;0.50;0.50;;;;;;;6.25;84.27;96030.41;5039678;28;20225;-69
2022/02/22 00:44:07;;;;;;;0.20;0.20;;;;;;;5.97;85.76;96041.22;5038913;28;20206;-69
2022/02/22 00:46:34;;;;;;;2.30;0.90;;;;;;;6.04;86.08;96044.03;5038949;28;20840;-69
2022/02/22 00:49:00;;;;;;;0.23;0.23;;;;;;;5.78;86.39;96057.09;5039334;28;20205;-69
2022/02/22 00:51:27;;;;;;;0.30;0.30;;;;;;;5.84;86.38;96063.50;5038992;28;20224;-69
2022/02/22 00:53:53;;;;;;;0.40;0.40;;;;;;;5.85;87.55;96057.28;5037992;28;20243;-69
2022/02/22 00:56:20;;;;;;;0.30;0.30;;;;;;;5.95;87.65;96061.44;5039229;28;20205;-68
2022/02/22 00:58:48;;;;;;;0.60;0.33;;;;;;;5.95;88.05;96060.63;5039421;28;20205;-68
2022/02/22 01:01:16;;;;;;;9.40;0.87;;;;;;;5.79;88.29;96070.97;5038749;28;20607;-68
2022/02/22 01:03:43;;;;;;;2.47;0.50;;;;;;;5.66;88.64;96076.53;5037795;28;20682;-68
2022/02/22 01:06:09;;;;;;;0.27;0.27;;;;;;;5.80;88.51;96070.81;5038746;28;20221;-69
2022/02/22 01:08:36;;;;;;;3.10;0.87;;;;;;;5.80;88.14;96068.19;5039518;28;20205;-69
2022/02/22 01:11:02;;;;;;;0.30;0.30;;;;;;;5.73;88.92;96071.56;5039228;28;20221;-69
2022/02/22 01:13:29;;;;;;;2.77;0.50;;;;;;;5.61;89.21;96072.75;5038015;28;20361;-69
2022/02/22 01:15:57;;;;;;;3.90;1.30;;;;;;;5.67;89.90;96072.16;5038994;28;20584;-68
2022/02/22 01:18:23;;;;;;;0.40;0.40;;;;;;;5.44;90.85;96078.81;5038416;28;20209;-68
2022/02/22 01:20:50;;;;;;;0.43;0.43;;;;;;;5.41;90.64;96093.97;5038108;28;20221;-68
2022/02/22 01:23:17;;;;;;;0.60;0.60;;;;;;;5.49;90.67;96097.47;5038031;28;20205;-68
2022/02/22 01:25:44;;;;;;;2.00;0.80;;;;;;;5.41;91.62;96100.03;5038560;28;20217;-68
2022/02/22 01:28:10;;;;;;;0.20;0.20;;;;;;;5.35;92.56;96103.22;5038577;28;20205;-68
2022/02/22 01:30:37;;;;;;;2.00;0.77;;;;;;;5.48;92.81;96107.09;5038215;28;21120;-68
2022/02/22 01:33:05;;;;;;;0.43;0.43;;;;;;;5.57;92.73;96097.53;5037735;28;20209;-68
2022/02/22 01:35:31;;;;;;;0.30;0.30;;;;;;;5.46;92.58;96095.19;5038243;28;20213;-68
2022/02/22 01:37:58;;;;;;;1.00;0.40;;;;;;;5.32;92.98;96108.75;5038871;28;20201;-68
2022/02/22 01:40:26;;;;;;;2.93;0.60;;;;;;;5.42;92.89;96109.47;5038373;28;20221;-68
2022/02/22 01:42:53;;;;;;;0.63;0.63;;;;;;;5.44;93.03;96113.59;5037227;28;20205;-68
2022/02/22 01:45:22;;;;;;;0.50;0.50;;;;;;;5.45;93.27;96124.88;5038225;28;20225;-68
2022/02/22 01:47:48;;;;;;;0.60;0.60;;;;;;;5.31;93.47;96137.63;5037825;28;20207;-68
2022/02/22 01:50:16;;;;;;;2.03;1.17;;;;;;;5.48;93.43;96141.06;5037999;28;20209;-68
2022/02/22 01:52:43;;;;;;;0.93;0.53;;;;;;;5.57;93.71;96141.97;5037637;28;20197;-68
2022/02/22 01:55:10;;;;;;;0.37;0.37;;;;;;;5.27;94.46;96139.72;5037670;28;20209;-68
2022/02/22 01:57:37;;;;;;;0.20;0.20;;;;;;;5.29;94.43;96153.44;5037799;28;20854;-68
2022/02/22 02:00:08;;;;;;;4.57;0.70;;;;;;;5.41;94.61;96154.91;5038027;28;20209;-68
2022/02/22 02:02:35;;;;;;;0.37;0.37;;;;;;;5.36;93.70;96151.06;5037009;28;20208;-67
2022/02/22 02:05:02;;;;;;;1.23;0.70;;;;;;;5.42;94.04;96146.06;5037399;28;20216;-68
2022/02/22 02:07:30;;;;;;;0.43;0.43;;;;;;;5.46;93.91;96153.47;5037686;28;21002;-69
2022/02/22 02:09:56;;;;;;;1.13;1.07;;;;;;;5.54;93.61;96150.13;5037845;28;20201;-68
2022/02/22 02:12:23;;;;;;;8.73;1.17;;;;;;;5.43;93.42;96146.91;5036757;28;20334;-68
2022/02/22 02:14:49;;;;;;;4.23;0.97;;;;;;;5.58;92.50;96138.41;5037631;28;20205;-68
2022/02/22 02:17:16;;;;;;;31.53;1.63;;;;;;;5.63;91.53;96128.31;5037484;28;20204;-68
2022/02/22 02:19:43;;;;;;;10.40;0.67;;;;;;;5.61;91.45;96138.94;5037481;28;20279;-69
2022/02/22 02:22:11;;;;;;;5.10;1.43;;;;;;;5.68;89.74;96136.53;5037046;28;20251;-68
2022/02/22 02:24:37;;;;;;;0.73;0.73;;;;;;;5.67;89.30;96134.88;5037658;28;20220;-68
2022/02/22 02:27:04;;;;;;;1.53;0.37;;;;;;;5.74;87.96;96130.69;5036375;28;20228;-69
2022/02/22 02:29:30;;;;;;;0.30;0.30;;;;;;;5.48;86.55;96124.56;5036912;28;20576;-68
2022/02/22 02:31:58;;;;;;;0.40;0.40;;;;;;;5.82;85.76;96136.03;5037709;28;20221;-69
2022/02/22 02:34:26;;;;;;;1.23;1.13;;;;;;;5.71;85.06;96141.44;5036591;28;20205;-68
2022/02/22 02:36:53;;;;;;;1.97;0.60;;;;;;;5.80;84.10;96146.63;5036981;28;20625;-68
2022/02/22 02:39:21;;;;;;;0.30;0.30;;;;;;;5.78;83.04;96153.81;5037567;28;20209;-69
2022/02/22 02:41:48;;;;;;;0.57;0.50;;;;;;;5.84;83.34;96152.38;5037058;28;20221;-69
2022/02/22 02:44:17;;;;;;;0.90;0.90;;;;;;;5.81;81.79;96166.56;5035625;28;21181;-69
2022/02/22 02:46:44;;;;;;;1.50;0.83;;;;;;;5.82;80.96;96165.63;5037357;28;20221;-68
2022/02/22 02:49:12;;;;;;;0.50;0.50;;;;;;;5.87;80.43;96165.16;5036934;28;20201;-69
2022/02/22 02:51:39;;;;;;;0.67;0.57;;;;;;;5.80;79.98;96174.56;5036391;28;20217;-69
2022/02/22 02:54:07;;;;;;;0.73;0.73;;;;;;;5.86;78.41;96173.97;5036555;28;20216;-68
2022/02/22 02:56:35;;;;;;;0.43;0.43;;;;;;;6.02;78.29;96179.34;5036998;28;20576;-69
2022/02/22 02:59:04;;;;;;;1.80;0.60;;;;;;;5.80;77.72;96185.03;5036807;28;20212;-69
2022/02/22 03:01:33;;;;;;;2.67;0.40;;;;;;;5.77;77.59;96185.34;5036696;28;20224;-69
2022/02/22 03:04:00;;;;;;;0.73;0.63;;;;;;;5.76;77.05;96186.31;5036317;28;20232;-69
2022/02/22 03:06:27;;;;;;;3.40;0.53;;;;;;;5.68;76.46;96186.19;5036766;28;21019;-69
2022/02/22 03:08:54;;;;;;;0.77;0.50;;;;;;;5.60;76.99;96180.88;5036673;28;20212;-69
2022/02/22 03:11:21;;;;;;;10.37;1.67;;;;;;;5.72;76.49;96190.97;5036333;28;20709;-69
2022/02/22 03:13:49;;;;;;;3.17;1.40;;;;;;;5.71;76.71;96210.22;5036193;28;21037;-69
2022/02/22 03:16:15;;;;;;;1.37;0.50;;;;;;;5.57;76.74;96209.94;5036850;28;20223;-68
2022/02/22 03:18:42;;;;;;;0.30;0.30;;;;;;;5.77;76.81;96214.09;5036422;28;20229;-68
2022/02/22 03:21:09;;;;;;;0.73;0.67;;;;;;;5.80;77.31;96219.03;5036278;28;20220;-69
2022/02/22 03:23:36;;;;;;;0.50;0.50;;;;;;;5.83;76.92;96218.72;5035560;28;20745;-69
2022/02/22 03:26:02;;;;;;;1.17;0.30;;;;;;;5.95;77.05;96220.97;5035933;28;20228;-69
2022/02/22 03:28:29;;;;;;;0.33;0.33;;;;;;;5.89;77.00;96236.44;5036516;28;20204;-69
2022/02/22 03:30:56;;;;;;;0.30;0.30;;;;;;;6.00;77.40;96231.81;5036277;28;20236;-69
2022/02/22 03:33:23;;;;;;;1.10;0.63;;;;;;;5.97;77.62;96236.50;5035606;28;20212;-69
2022/02/22 03:35:49;;;;;;;1.33;0.93;;;;;;;5.84;78.76;96246.50;5036311;28;20560;-68
2022/02/22 03:38:16;;;;;;;0.47;0.37;;;;;;;5.72;80.70;96247.66;5036744;28;20235;-69
2022/02/22 03:40:43;;;;;;;0.30;0.30;;;;;;;5.74;81.33;96243.94;5040392;28;21285;-69
2022/02/22 03:43:09;;;;;;;0.50;0.50;;;;;;;5.76;81.87;96251.66;5039637;28;20205;-69
2022/02/22 03:45:36;;;;;;;0.43;0.43;;;;;;;5.72;81.98;96250.28;5040004;28;20204;-69
2022/02/22 03:48:04;;;;;;;0.40;0.40;;;;;;;5.86;82.69;96249.81;5040454;28;20201;-69
2022/02/22 03:50:31;;;;;;;0.30;0.30;;;;;;;5.83;82.52;96258.78;5040247;28;20260;-68
2022/02/22 03:52:57;;;;;;;0.53;0.50;;;;;;;5.80;82.75;96260.84;5039850;28;20223;-68
2022/02/22 03:55:24;;;;;;;0.73;0.60;;;;;;;5.86;83.22;96249.81;5040429;28;20209;-69
2022/02/22 03:57:51;;;;;;;8.53;0.70;;;;;;;5.65;83.76;96254.44;5040098;28;20216;-68
2022/02/22 04:00:19;;;;;;;0.37;0.37;;;;;;;5.72;84.66;96263.34;5039847;28;20272;-68
2022/02/22 04:02:45;;;;;;;0.80;0.60;;;;;;;5.69;84.83;96272.31;5039844;28;20224;-69
2022/02/22 04:05:14;;;;;;;0.50;0.50;;;;;;;5.83;85.09;96271.00;5040251;28;20205;-69
2022/02/22 04:07:41;;;;;;;0.20;0.20;;;;;;;5.76;84.86;96281.22;5039987;28;20225;-69
2022/02/22 04:10:10;;;;;;;0.50;0.50;;;;;;;5.68;85.35;96298.59;5039937;28;20227;-69
2022/02/22 04:12:37;;;;;;;1.93;0.43;;;;;;;5.57;84.84;96304.00;5039161;28;20209;-69
2022/02/22 04:15:04;;;;;;;2.10;0.83;;;;;;;5.62;83.89;96299.19;5039540;28;20296;-69
2022/02/22 04:17:31;;;;;;;1.03;1.03;;;;;;;5.53;83.81;96308.69;5040410;28;20236;-69
2022/02/22 04:19:58;;;;;;;0.70;0.70;;;;;;;5.55;82.85;96321.66;5039588;28;20759;-68
2022/02/22 04:22:26;;;;;;;0.60;0.60;;;;;;;5.75;82.21;96337.09;5038728;28;20205;-68
2022/02/22 04:24:52;;;;;;;0.30;0.30;;;;;;;5.61;82.88;96344.56;5039804;28;20213;-69
2022/02/22 04:27:19;;;;;;;0.73;0.63;;;;;;;5.53;84.20;96360.16;5039068;28;20232;-69
2022/02/22 04:29:45;;;;;;;1.13;0.63;;;;;;;5.27;85.62;96387.91;5039394;28;20209;-69
2022/02/22 04:32:12;;;;;;;5.33;1.00;;;;;;;5.22;85.60;96368.34;5039226;28;20221;-69
2022/02/22 04:34:38;;;;;;;17.17;0.63;;;;;;;5.21;86.42;96385.03;5039581;28;20200;-69
2022/02/22 04:37:05;;;;;;;0.50;0.50;;;;;;;4.79;89.03;96395.94;5039101;28;20585;-68
2022/02/22 04:39:33;;;;;;;0.50;0.43;;;;;;;4.80;90.88;96384.50;5039348;28;20852;-68
2022/02/22 04:41:59;;;;;;;0.40;0.40;;;;;;;4.54;91.26;96393.88;5039790;28;20311;-68
2022/02/22 04:44:26;;;;;;;0.30;0.30;;;;;;;4.38;93.82;96385.78;5038430;28;20209;-68
2022/02/22 04:46:52;;;;;;;0.40;0.40;;;;;;;4.32;94.96;96391.53;5039237;28;20626;-68
2022/02/22 04:49:19;;;;;;;0.30;0.30;;;;;;;4.47;94.29;96387.56;5038319;28;20209;-68
2022/02/22 04:51:46;;;;;;;0.50;0.50;;;;;;;4.45;94.14;96394.69;5039215;28;20225;-68
2022/02/22 04:54:13;;;;;;;4.57;0.50;;;;;;;4.37;94.03;96400.56;5038123;28;20205;-68
2022/02/22 04:56:40;;;;;;;0.43;0.40;;;;;;;4.65;93.94;96409.41;5038952;28;20368;-68
2022/02/22 04:59:07;;;;;;;12.10;1.20;;;;;;;4.46;93.71;96412.00;5039366;28;20208;-69
2022/02/22 05:01:33;;;;;;;0.40;0.40;;;;;;;4.50;93.67;96411.56;5038642;28;20218;-68
2022/02/22 05:04:00;;;;;;;0.30;0.30;;;;;;;4.50;93.88;96413.38;5038239;28;21158;-69
2022/02/22 05:06:26;;;;;;;1.37;0.97;;;;;;;4.60;93.06;96409.00;5038969;28;20222;-69
2022/02/22 05:08:53;;;;;;;0.50;0.50;;;;;;;4.75;93.17;96407.59;5038871;28;20212;-69
2022/02/22 05:11:19;;;;;;;4.77;0.47;;;;;;;4.66;92.02;96418.84;5038276;28;20375;-68
2022/02/22 05:13:47;;;;;;;2.50;0.57;;;;;;;4.68;92.09;96409.13;5038451;28;20216;-68
2022/02/22 05:16:14;;;;;;;0.30;0.30;;;;;;;4.62;91.44;96412.28;5039665;28;20209;-68
2022/02/22 05:18:40;;;;;;;1.20;1.17;;;;;;;4.63;91.21;96417.34;5038323;28;20213;-68
2022/02/22 05:21:07;;;;;;;0.57;0.57;;;;;;;4.65;90.76;96425.88;5038242;28;20225;-68
2022/02/22 05:23:35;;;;;;;6.43;0.90;;;;;;;4.84;90.00;96418.06;5038571;28;20201;-68
2022/02/22 05:26:02;;;;;;;1.60;0.60;;;;;;;4.94;89.98;96421.50;5038524;28;20205;-69
2022/02/22 05:28:29;;;;;;;0.80;0.80;;;;;;;4.80;89.79;96429.72;5038180;28;20221;-68
2022/02/22 05:30:57;;;;;;;4.03;0.97;;;;;;;4.88;89.50;96430.69;5038511;28;20225;-69
2022/02/22 05:33:24;;;;;;;0.67;0.63;;;;;;;5.09;88.35;96441.81;5037683;28;21080;-69
2022/02/22 05:35:52;;;;;;;0.50;0.40;;;;;;;5.00;87.72;96447.88;5038510;28;20216;-69
2022/02/22 05:38:20;;;;;;;3.60;0.67;;;;;;;5.01;87.14;96449.50;5037863;28;20205;-69
2022/02/22 05:40:47;;;;;;;1.17;1.07;;;;;;;5.01;86.64;96443.47;5038287;28;20776;-69
2022/02/22 05:43:14;;;;;;;0.40;0.40;;;;;;;4.95;86.76;96441.38;5037625;28;20208;-69
2022/02/22 05:45:40;;;;;;;3.73;0.70;;;;;;;4.94;86.04;96435.34;5037751;28;20772;-69
2022/02/22 05:48:08;;;;;;;1.50;0.33;;;;;;;5.00;86.11;96445.25;5038137;28;20791;-68
2022/02/22 05:50:34;;;;;;;0.50;0.50;;;;;;;4.84;85.47;96454.59;5037902;28;20236;-69
2022/02/22 05:53:01;;;;;;;2.10;1.33;;;;;;;4.84;84.95;96452.00;5036962;28;20216;-68
2022/02/22 05:55:28;;;;;;;0.40;0.40;;;;;;;5.12;84.32;96465.03;5038113;28;20197;-69
2022/02/22 05:57:54;;;;;;;0.50;0.50;;;;;;;4.93;84.69;96470.25;5038244;28;20207;-69
2022/02/22 06:00:21;;;;;;;0.40;0.40;;;;;;;5.05;84.31;96473.56;5036326;28;20736;-69
2022/02/22 06:02:48;;;;;;;0.50;0.50;;;;;;;4.99;83.61;96482.78;5037389;28;20208;-68
2022/02/22 06:05:16;;;;;;;0.40;0.40;;;;;;;5.21;83.50;96481.66;5037229;28;20201;-69
2022/02/22 06:07:43;;;;;;;1.80;1.63;;;;;;;5.14;82.53;96494.47;5037422;28;20519;-68
2022/02/22 06:10:10;;;;;;;0.40;0.40;;;;;;;5.19;83.75;96492.22;5037487;28;20212;-69
2022/02/22 06:12:36;;;;;;;2.77;0.87;;;;;;;5.05;83.46;96508.34;5037264;28;20197;-68
2022/02/22 06:15:05;;;;;;;2.47;0.47;;;;;;;4.99;84.69;96503.66;5037681;28;20229;-68
2022/02/22 06:17:38;;;;;;;0.80;0.80;;;;;;;5.14;84.20;96517.97;5036509;28;20830;-67
2022/02/22 06:20:06;;;;;;;0.40;0.40;;;;;;;4.84;84.83;96519.88;5037107;28;20205;-69
2022/02/22 06:22:34;;;;;;;7.00;0.87;;;;;;;4.71;86.21;96532.34;5036826;28;20201;-68
2022/02/22 06:25:01;;;;;;;1.03;0.50;;;;;;;4.48;87.66;96530.91;5037566;28;20210;-68
2022/02/22 06:27:27;;;;;;;0.30;0.30;;;;;;;4.50;88.59;96534.19;5037541;28;20252;-68
2022/02/22 06:29:54;;;;;;;0.40;0.40;;;;;;;4.41;88.99;96537.59;5037516;28;20209;-68
2022/02/22 06:32:20;;;;;;;0.60;0.50;;;;;;;4.30;90.06;96544.72;5036635;28;20229;-68
2022/02/22 06:34:47;;;;;;;0.30;0.30;;;;;;;4.36;90.14;96550.22;5037020;28;21036;-68
2022/02/22 06:37:13;;;;;;;5.30;1.13;;;;;;;4.55;89.71;96557.31;5037683;28;20201;-68
2022/02/22 06:39:41;;;;;;;0.37;0.37;;;;;;;4.61;89.95;96556.75;5037198;28;20212;-68
2022/02/22 06:42:09;;;;;;;0.23;0.23;;;;;;;4.50;89.68;96554.25;5037239;28;20232;-68
2022/02/22 06:44:36;;;;;;;2.23;0.70;;;;;;;4.80;88.42;96560.25;5036424;28;20212;-68
2022/02/22 06:47:03;;;;;;;0.43;0.43;;;;;;;4.88;87.00;96571.66;5036602;28;20268;-69
2022/02/22 06:49:29;;;;;;;2.13;0.63;;;;;;;5.00;86.02;96572.38;5037564;28;20208;-69
2022/02/22 06:51:56;;;;;;;0.33;0.33;;;;;;;4.91;85.64;96562.72;5036912;28;20220;-68
2022/02/22 06:54:22;;;;;;;0.57;0.57;;;;;;;5.04;84.84;96571.97;5036373;28;20240;-68
2022/02/22 06:56:50;;;;;;;1.80;0.80;;;;;;;5.31;84.79;96577.38;5037639;28;20205;-69
2022/02/22 06:59:18;;;;;;;2.60;0.87;;;;;;;5.37;84.58;96581.19;5036197;28;20205;-69
2022/02/22 07:01:44;;;;;;;0.40;0.40;;;;;;;5.09;84.70;96588.06;5037817;28;20344;-69
2022/02/22 07:04:11;;;;;;;0.37;0.37;;;;;;;5.03;82.56;96583.38;5036717;28;20205;-69
2022/02/22 07:06:38;;;;;;;0.53;0.53;;;;;;;5.14;82.00;96580.66;5036586;28;20215;-68
2022/02/22 07:09:06;;;;;;;8.90;0.87;;;;;;;5.36;81.03;96590.84;5036483;28;20213;-69
2022/02/22 07:11:32;;;;;;;6.03;0.80;;;;;;;5.38;80.47;96594.13;5036317;28;21229;-69
2022/02/22 07:13:59;;;;;;;0.63;0.47;;;;;;;5.41;80.85;96601.72;5035949;28;20209;-69
2022/02/22 07:16:27;;;;;;;0.63;0.43;;;;;;;5.69;79.51;96603.47;5036248;28;20216;-69
2022/02/22 07:18:53;;;;;;;6.17;0.67;;;;;;;5.65;79.44;96612.56;5036448;28;20219;-69
2022/02/22 07:21:21;;;;;;;0.33;0.33;;;;;;;5.61;79.57;96619.88;5036444;28;20221;-70
2022/02/22 07:23:47;;;;;;;0.60;0.50;;;;;;;5.63;79.35;96624.97;5036079;28;20262;-71
2022/02/22 07:26:14;;;;;;;1.07;0.70;;;;;;;5.68;79.39;96628.00;5036450;28;20197;-72
2022/02/22 07:28:40;;;;;;;5.20;0.93;;;;;;;5.68;78.72;96638.44;5036811;28;20221;-71
2022/02/22 07:31:08;;;;;;;3.20;0.73;;;;;;;5.60;78.89;96640.91;5036372;28;20229;-71
2022/02/22 07:33:36;;;;;;;2.53;0.57;;;;;;;5.80;78.33;96647.81;5035785;28;20205;-71
2022/02/22 07:36:04;;;;;;;0.30;0.30;;;;;;;5.77;78.53;96643.69;5036657;28;20201;-71
2022/02/22 07:38:30;;;;;;;0.50;0.50;;;;;;;5.61;77.54;96653.84;5035865;28;20201;-71
2022/02/22 07:40:57;;;;;;;1.47;0.80;;;;;;;5.93;77.37;96658.81;5036237;28;20225;-71
2022/02/22 07:43:23;;;;;;;3.40;0.80;;;;;;;6.03;77.04;96663.06;5035658;28;20208;-71
2022/02/22 07:45:50;;;;;;;1.20;1.13;;;;;;;6.14;78.09;96669.00;5036453;28;20209;-71
2022/02/22 07:48:16;;;;;;;1.10;0.73;;;;;;;5.90;77.40;96680.03;5035832;28;20231;-71
2022/02/22 07:50:44;;;;;;;0.43;0.43;;;;;;;6.01;78.09;96677.25;5036400;28;20232;-70
2022/02/22 07:53:10;;;;;;;0.40;0.40;;;;;;;5.82;77.37;96698.22;5035389;28;20331;-71
2022/02/22 07:55:37;;;;;;;0.50;0.50;;;;;;;5.88;77.19;96692.41;5036242;28;20201;-71
2022/02/22 07:58:03;;;;;;;0.70;0.60;;;;;;;6.06;76.85;96689.78;5036542;28;20213;-71
2022/02/22 08:00:30;;;;;;;0.50;0.50;;;;;;;5.99;76.08;96700.94;5035966;28;20782;-70
2022/02/22 08:02:57;;;;;;;0.90;0.40;;;;;;;5.96;75.88;96710.84;5035284;28;20205;-71
2022/02/22 08:05:24;;;;;;;1.60;0.60;;;;;;;5.87;75.99;96722.97;5036641;28;20205;-70
2022/02/22 08:07:52;;;;;;;3.50;1.47;;;;;;;5.92;75.94;96733.00;5035843;28;20225;-71
2022/02/22 08:10:18;;;;;;;0.67;0.67;;;;;;;5.87;76.28;96736.06;5035644;28;21060;-71
2022/02/22 08:12:46;;;;;;;0.43;0.30;;;;;;;5.92;75.12;96736.47;5035942;28;20952;-71
2022/02/22 08:15:12;;;;;;;2.63;1.20;;;;;;;5.75;73.24;96750.19;5036957;28;20209;-71
2022/02/22 08:17:42;;;;;;;1.13;0.83;;;;;;;6.04;74.29;96751.88;5035544;28;20205;-71
2022/02/22 08:20:10;;;;;;;10.57;1.23;;;;;;;5.99;74.16;96753.25;5035357;28;20205;-71
2022/02/22 08:22:37;;;;;;;0.80;0.80;;;;;;;5.99;72.37;96749.81;5035403;28;20205;-70
2022/02/22 08:25:06;;;;;;;2.93;0.70;;;;;;;6.29;72.47;96740.06;5038614;28;20283;-71
2022/02/22 08:27:33;;;;;;;1.30;0.60;;;;;;;6.04;72.73;96762.34;5039345;28;20225;-71
2022/02/22 08:29:59;;;;;;;0.50;0.50;;;;;;;6.14;71.98;96755.31;5038800;28;20208;-70
2022/02/22 08:32:26;;;;;;;0.43;0.43;;;;;;;6.17;72.31;96747.22;5037533;28;20208;-71
2022/02/22 08:34:52;;;;;;;1.83;0.40;;;;;;;6.24;70.06;96758.78;5039657;28;20209;-71
2022/02/22 08:37:19;;;;;;;4.80;0.40;;;;;;;6.27;70.68;96762.91;5039495;28;20205;-71
2022/02/22 08:39:45;;;;;;;0.33;0.33;;;;;;;6.43;70.86;96763.16;5039342;28;20583;-71
2022/02/22 08:42:13;;;;;;;0.90;0.70;;;;;;;6.71;71.61;96763.16;5038873;28;20225;-71
2022/02/22 08:44:39;;;;;;;1.17;0.57;;;;;;;6.37;72.05;96758.50;5039681;28;20590;-71
2022/02/22 08:47:07;;;;;;;1.90;0.40;;;;;;;6.50;73.57;96762.47;5039617;28;20209;-71
2022/02/22 08:49:34;;;;;;;0.80;0.80;;;;;;;6.46;74.13;96762.91;5038662;28;20243;-71
2022/02/22 08:52:00;;;;;;;0.33;0.33;;;;;;;6.41;72.91;96758.06;5039263;28;20261;-71
2022/02/22 08:54:27;;;;;;;0.63;0.50;;;;;;;6.35;73.42;96763.88;5038655;28;20206;-71
2022/02/22 08:56:53;;;;;;;0.50;0.50;;;;;;;6.45;72.85;96756.81;5038948;28;20696;-71
2022/02/22 08:59:21;;;;;;;2.77;0.80;;;;;;;6.89;71.69;96767.50;5038977;28;20205;-71
2022/02/22 09:01:48;;;;;;;8.73;0.47;;;;;;;6.78;68.16;96753.75;5039122;28;20236;-71
2022/02/22 09:04:14;;;;;;;2.07;0.57;;;;;;;6.90;69.63;96760.50;5038322;28;20201;-71
2022/02/22 09:06:41;;;;;;;0.30;0.30;;;;;;;6.55;68.06;96781.22;5038767;28;20202;-72
2022/02/22 09:09:07;;;;;;;0.67;0.67;;;;;;;6.67;69.82;96773.06;5039028;28;20225;-71
2022/02/22 09:11:33;;;;;;;0.50;0.47;;;;;;;6.70;68.93;96774.56;5038533;28;20223;-71
2022/02/22 09:14:00;;;;;;;0.47;0.40;;;;;;;6.90;68.63;96771.78;5037986;28;20209;-71
2022/02/22 09:16:28;;;;;;;1.07;0.93;;;;;;;7.08;69.43;96777.94;5038921;28;20213;-71
2022/02/22 09:18:54;;;;;;;9.60;1.27;;;;;;;7.10;68.73;96768.13;5038692;28;20205;-71
2022/02/22 09:21:21;;;;;;;1.97;1.20;;;;;;;6.99;68.77;96765.69;5036792;28;20228;-71
2022/02/22 09:23:48;;;;;;;1.83;0.83;;;;;;;6.97;67.93;96775.47;5036821;28;20201;-71
2022/02/22 09:26:14;;;;;;;0.87;0.70;;;;;;;6.95;68.52;96768.72;5038876;28;20205;-71
2022/02/22 09:28:41;;;;;;;1.53;0.90;;;;;;;6.92;67.05;96787.34;5037723;28;20416;-70
2022/02/22 09:31:08;;;;;;;4.03;0.40;;;;;;;6.96;68.97;96786.94;5037447;28;20225;-71
2022/02/22 09:33:36;;;;;;;0.67;0.47;;;;;;;7.14;68.66;96781.75;5036919;28;20208;-70
2022/02/22 09:36:02;;;;;;;0.30;0.30;;;;;;;6.81;68.27;96790.97;5034962;28;20220;-70
2022/02/22 09:38:29;;;;;;;0.43;0.40;;;;;;;6.97;69.16;96780.72;5037392;28;20209;-71
2022/02/22 09:40:57;;;;;;;0.23;0.23;;;;;;;6.94;69.20;96801.16;5037709;28;20232;-71
2022/02/22 09:43:23;;;;;;;1.73;0.70;;;;;;;7.35;69.59;96801.56;5036740;28;20345;-71
2022/02/22 09:45:50;;;;;;;0.90;0.77;;;;;;;7.13;69.24;96796.69;5037684;28;20628;-71
2022/02/22 09:48:17;;;;;;;1.40;0.63;;;;;;;6.98;67.94;96787.59;5037204;28;20236;-71
2022/02/22 09:50:45;;;;;;;1.37;0.47;;;;;;;7.01;67.98;96796.97;5037251;28;20221;-71
2022/02/22 09:53:11;;;;;;;0.43;0.40;;;;;;;6.93;69.36;96799.47;5036504;28;20209;-71
2022/02/22 09:55:38;;;;;;;0.30;0.30;;;;;;;6.97;67.93;96808.72;5037524;28;20669;-70
2022/02/22 09:58:04;;;;;;;1.03;0.60;;;;;;;7.14;68.03;96803.56;5037090;28;20412;-71
2022/02/22 10:00:32;;;;;;;0.50;0.50;;;;;;;7.24;66.76;96811.41;5036677;28;20227;-70
2022/02/22 10:02:59;;;;;;;0.73;0.70;;;;;;;7.45;67.89;96802.34;5036685;28;20209;-71
2022/02/22 10:05:27;;;;;;;1.77;0.43;;;;;;;7.48;66.06;96808.13;5037469;28;20218;-71
2022/02/22 10:07:57;;;;;;;0.53;0.53;;;;;;;7.58;66.24;96819.41;5037214;28;20205;-71
2022/02/22 10:10:34;;;;;;;4.30;1.10;;;;;;;7.70;66.71;96810.38;5037372;28;20221;-71
2022/02/22 10:13:01;;;;;;;0.40;0.40;;;;;;;7.47;66.66;96819.59;5037132;28;20275;-71
2022/02/22 10:15:28;;;;;;;0.20;0.20;;;;;;;7.29;66.34;96815.22;5037189;28;20201;-71
2022/02/22 10:17:55;;;;;;;0.67;0.60;;;;;;;7.60;66.42;96811.38;5037260;28;20694;-71
2022/02/22 10:20:21;;;;;;;0.40;0.40;;;;;;;7.54;66.30;96825.09;5037565;28;20912;-71
2022/02/22 10:22:50;;;;;;;0.50;0.27;;;;;;;7.61;65.66;96808.63;5036517;28;20201;-71
2022/02/22 10:25:18;;;;;;;5.10;1.00;;;;;;;7.72;66.47;96816.28;5037087;28;20208;-71
2022/02/22 10:27:47;;;;;;;1.33;0.57;;;;;;;7.94;66.23;96819.38;5037501;28;20320;-71
2022/02/22 10:30:25;;;;;;;5.87;0.60;;;;;;;7.94;65.29;96816.75;5036646;28;20220;-71
2022/02/22 10:32:51;;;;;;;0.30;0.30;;;;;;;7.52;65.26;96806.88;5037124;28;20205;-71
2022/02/22 10:35:28;;;;;;;1.40;0.50;;;;;;;7.80;65.36;96819.00;5037284;28;20700;-70
2022/02/22 10:37:55;;;;;;;0.50;0.50;;;;;;;7.75;65.88;96815.19;5036721;28;20205;-71
2022/02/22 10:40:27;;;;;;;0.20;0.20;;;;;;;7.97;66.86;96821.69;5036712;28;20248;-71
2022/02/22 10:42:54;;;;;;;0.83;0.80;;;;;;;7.76;65.75;96815.03;5036947;28;20205;-71
2022/02/22 10:45:21;;;;;;;2.43;0.87;;;;;;;7.98;66.41;96815.47;5037774;28;20212;-71
2022/02/22 10:47:49;;;;;;;0.30;0.30;;;;;;;7.94;66.71;96821.16;5036917;28;20224;-71
2022/02/22 10:50:16;;;;;;;0.50;0.50;;;;;;;7.86;66.96;96823.69;5036065;28;20733;-71
2022/02/22 10:52:43;;;;;;;1.53;0.70;;;;;;;7.85;66.73;96819.41;5035985;28;20239;-71
2022/02/22 10:55:10;;;;;;;1.90;0.80;;;;;;;7.83;67.14;96820.50;5037516;28;20216;-71
2022/02/22 10:57:37;;;;;;;0.30;0.30;;;;;;;7.99;68.17;96818.91;5036468;28;20760;-71
2022/02/22 11:00:06;;;;;;;0.33;0.33;;;;;;;7.86;68.81;96817.63;5036503;28;20213;-71
2022/02/22 11:02:34;;;;;;;3.70;0.87;;;;;;;7.98;69.10;96822.50;5035174;28;20208;-71
2022/02/22 11:05:01;;;;;;;0.53;0.50;;;;;;;7.96;69.30;96827.09;5036333;28;20209;-71
2022/02/22 11:07:27;;;;;;;0.30;0.30;;;;;;;7.84;69.41;96836.13;5036750;28;20573;-71
2022/02/22 11:09:54;;;;;;;5.27;1.33;;;;;;;7.89;69.47;96828.63;5036305;28;20228;-71
2022/02/22 11:12:24;;;;;;;0.40;0.40;;;;;;;8.40;70.22;96821.00;5035843;28;20252;-71
2022/02/22 11:15:03;;;;;;;3.30;0.87;;;;;;;8.64;70.88;96815.03;5036884;28;20233;-71
2022/02/22 11:17:30;;;;;;;0.50;0.50;;;;;;;8.37;71.31;96816.06;5036726;28;20406;-72
2022/02/22 11:19:57;;;;;;;0.83;0.63;;;;;;;8.52;70.23;96813.56;5036203;28;20387;-71
2022/02/22 11:22:26;;;;;;;0.77;0.57;;;;;;;8.82;69.95;96807.09;5035390;28;20252;-71
2022/02/22 11:24:55;;;;;;;0.53;0.50;;;;;;;8.63;70.28;96809.88;5037035;28;20270;-71
2022/02/22 11:27:26;;;;;;;0.30;0.30;;;;;;;8.74;68.84;96805.22;5036827;28;20209;-72
2022/02/22 11:30:06;;;;;;;3.70;0.83;;;;;;;8.75;66.80;96811.31;5036392;28;20225;-70
2022/02/22 11:32:32;;;;;;;5.17;0.97;;;;;;;8.68;68.95;96805.84;5035490;28;20204;-71
2022/02/22 11:35:10;;;;;;;3.37;0.67;;;;;;;9.18;67.13;96793.72;5036660;28;20197;-71
2022/02/22 11:37:36;;;;;;;5.33;2.80;;;;;;;9.13;67.15;96785.50;5035258;28;20309;-71
2022/02/22 11:40:06;;;;;;;3.57;1.30;;;;;;;9.75;67.03;96781.53;5036316;28;20216;-72